sensor_id;sensor_type;location;lat;lon;timestamp;pressure;altitude;pressure_sealevel;temperature;humidity
13027;BME280;6580;42.680;23.324;2023-04-23T00:00:41;95224.09;;;10.80;100.00
13027;BME280;6580;42.680;23.324;2023-04-23T00:03:30;95217.69;;;10.65;100.00
13027;BME280;6580;42.680;23.324;2023-04-23T00:06:17;95207.13;;;10.81;100.00
13027;BME280;6580;42.680;23.324;2023-04-23T00:09:06;95223.84;;;10.99;100.00
13027;BME280;6580;42.680;23.324;2023-04-23T00:11:52;95214.69;;;10.93;100.00
13027;BME280;6580;42.680;23.324;2023-04-23T00:14:42;95215.91;;;11.07;100.00
13027;BME280;6580;42.680;23.324;2023-04-23T00:17:27;95218.84;;;10.96;100.00
13027;BME280;6580;42.680;23.324;2023-04-23T00:20:13;95217.03;;;10.96;100.00
13027;BME280;6580;42.680;23.324;2023-04-23T00:23:00;95225.50;;;10.58;100.00
13027;BME280;6580;42.680;23.324;2023-04-23T00:25:45;95210.03;;;10.62;100.00
13027;BME280;6580;42.680;23.324;2023-04-23T00:28:31;95218.94;;;10.78;100.00
13027;BME280;6580;42.680;23.324;2023-04-23T00:31:18;95216.59;;;10.83;100.00
13027;BME280;6580;42.680;23.324;2023-04-23T00:34:05;95224.06;;;10.72;100.00
13027;BME280;6580;42.680;23.324;2023-04-23T00:36:53;95219.75;;;10.79;100.00
13027;BME280;6580;42.680;23.324;2023-04-23T00:39:38;95217.91;;;10.71;100.00
13027;BME280;6580;42.680;23.324;2023-04-23T00:42:25;95206.84;;;10.58;100.00
13027;BME280;6580;42.680;23.324;2023-04-23T00:45:11;95214.28;;;10.47;100.00
13027;BME280;6580;42.680;23.324;2023-04-23T00:47:58;95217.13;;;10.53;100.00
13027;BME280;6580;42.680;23.324;2023-04-23T00:50:45;95214.84;;;10.58;100.00
13027;BME280;6580;42.680;23.324;2023-04-23T00:53:33;95215.63;;;10.51;100.00
13027;BME280;6580;42.680;23.324;2023-04-23T00:56:19;95227.50;;;10.39;100.00
13027;BME280;6580;42.680;23.324;2023-04-23T00:59:08;95214.88;;;10.41;100.00
13027;BME280;6580;42.680;23.324;2023-04-23T01:01:54;95227.50;;;10.39;100.00
13027;BME280;6580;42.680;23.324;2023-04-23T01:04:43;95219.63;;;10.29;100.00
13027;BME280;6580;42.680;23.324;2023-04-23T01:07:33;95225.41;;;10.42;100.00
13027;BME280;6580;42.680;23.324;2023-04-23T01:10:20;95216.41;;;10.43;100.00
13027;BME280;6580;42.680;23.324;2023-04-23T01:13:06;95219.31;;;10.32;100.00
13027;BME280;6580;42.680;23.324;2023-04-23T01:15:52;95227.59;;;10.21;100.00
13027;BME280;6580;42.680;23.324;2023-04-23T01:18:39;95222.78;;;10.25;100.00
13027;BME280;6580;42.680;23.324;2023-04-23T01:21:27;95215.56;;;10.43;100.00
13027;BME280;6580;42.680;23.324;2023-04-23T01:24:17;95213.59;;;10.45;100.00
13027;BME280;6580;42.680;23.324;2023-04-23T01:27:04;95224.81;;;10.31;100.00
13027;BME280;6580;42.680;23.324;2023-04-23T01:29:51;95213.69;;;10.10;100.00
13027;BME280;6580;42.680;23.324;2023-04-23T01:32:40;95221.41;;;10.21;100.00
13027;BME280;6580;42.680;23.324;2023-04-23T01:35:27;95225.41;;;10.17;100.00
13027;BME280;6580;42.680;23.324;2023-04-23T01:38:13;95226.41;;;10.24;100.00
13027;BME280;6580;42.680;23.324;2023-04-23T01:41:00;95229.03;;;10.16;100.00
13027;BME280;6580;42.680;23.324;2023-04-23T01:43:45;95217.34;;;10.09;100.00
13027;BME280;6580;42.680;23.324;2023-04-23T01:46:31;95239.22;;;10.03;100.00
13027;BME280;6580;42.680;23.324;2023-04-23T01:49:17;95232.78;;;10.06;100.00
13027;BME280;6580;42.680;23.324;2023-04-23T01:52:02;95234.00;;;10.11;100.00
13027;BME280;6580;42.680;23.324;2023-04-23T01:54:51;95229.34;;;10.13;100.00
13027;BME280;6580;42.680;23.324;2023-04-23T01:57:38;95221.94;;;9.99;100.00
13027;BME280;6580;42.680;23.324;2023-04-23T02:00:24;95240.06;;;9.86;100.00
13027;BME280;6580;42.680;23.324;2023-04-23T02:03:10;95238.63;;;9.92;100.00
13027;BME280;6580;42.680;23.324;2023-04-23T02:05:58;95243.22;;;9.99;100.00
13027;BME280;6580;42.680;23.324;2023-04-23T02:08:47;95241.59;;;9.89;100.00
13027;BME280;6580;42.680;23.324;2023-04-23T02:11:35;95241.81;;;9.95;100.00
13027;BME280;6580;42.680;23.324;2023-04-23T02:14:24;95240.69;;;9.80;100.00
13027;BME280;6580;42.680;23.324;2023-04-23T02:17:10;95245.94;;;9.72;100.00
13027;BME280;6580;42.680;23.324;2023-04-23T02:19:56;95244.78;;;9.75;100.00
13027;BME280;6580;42.680;23.324;2023-04-23T02:22:41;95250.50;;;9.62;100.00
13027;BME280;6580;42.680;23.324;2023-04-23T02:25:31;95241.38;;;9.82;100.00
13027;BME280;6580;42.680;23.324;2023-04-23T02:28:17;95235.97;;;9.74;100.00
13027;BME280;6580;42.680;23.324;2023-04-23T02:31:08;95248.59;;;9.72;100.00
13027;BME280;6580;42.680;23.324;2023-04-23T02:33:56;95251.94;;;9.74;100.00
13027;BME280;6580;42.680;23.324;2023-04-23T02:36:44;95254.56;;;9.39;100.00
13027;BME280;6580;42.680;23.324;2023-04-23T02:39:31;95249.31;;;9.47;100.00
13027;BME280;6580;42.680;23.324;2023-04-23T02:42:17;95252.38;;;9.35;100.00
13027;BME280;6580;42.680;23.324;2023-04-23T02:45:02;95244.84;;;9.48;100.00
13027;BME280;6580;42.680;23.324;2023-04-23T02:47:50;95250.94;;;9.58;100.00
13027;BME280;6580;42.680;23.324;2023-04-23T02:50:40;95246.31;;;9.42;100.00
13027;BME280;6580;42.680;23.324;2023-04-23T02:53:26;95246.44;;;9.41;100.00
13027;BME280;6580;42.680;23.324;2023-04-23T02:56:11;95250.25;;;9.38;100.00
13027;BME280;6580;42.680;23.324;2023-04-23T02:59:00;95257.22;;;9.39;100.00
13027;BME280;6580;42.680;23.324;2023-04-23T03:01:45;95250.06;;;9.40;100.00
13027;BME280;6580;42.680;23.324;2023-04-23T03:04:32;95253.78;;;9.29;100.00
13027;BME280;6580;42.680;23.324;2023-04-23T03:07:18;95253.78;;;9.29;100.00
13027;BME280;6580;42.680;23.324;2023-04-23T03:10:08;95259.41;;;9.26;100.00
13027;BME280;6580;42.680;23.324;2023-04-23T03:12:55;95265.94;;;9.32;100.00
13027;BME280;6580;42.680;23.324;2023-04-23T03:15:42;95254.72;;;9.55;100.00
13027;BME280;6580;42.680;23.324;2023-04-23T03:18:27;95262.78;;;9.46;100.00
13027;BME280;6580;42.680;23.324;2023-04-23T03:21:16;95261.75;;;9.29;100.00
13027;BME280;6580;42.680;23.324;2023-04-23T03:24:03;95272.88;;;9.15;100.00
13027;BME280;6580;42.680;23.324;2023-04-23T03:26:48;95262.06;;;9.26;100.00
13027;BME280;6580;42.680;23.324;2023-04-23T03:29:33;95264.22;;;9.40;100.00
13027;BME280;6580;42.680;23.324;2023-04-23T03:32:19;95266.47;;;9.35;100.00
13027;BME280;6580;42.680;23.324;2023-04-23T03:35:05;95268.91;;;9.29;100.00
13027;BME280;6580;42.680;23.324;2023-04-23T03:37:55;95267.47;;;9.34;100.00
13027;BME280;6580;42.680;23.324;2023-04-23T03:40:40;95274.22;;;9.29;100.00
13027;BME280;6580;42.680;23.324;2023-04-23T03:43:26;95271.41;;;9.30;100.00
13027;BME280;6580;42.680;23.324;2023-04-23T03:46:11;95274.41;;;9.45;100.00
13027;BME280;6580;42.680;23.324;2023-04-23T03:48:57;95273.94;;;9.49;100.00
13027;BME280;6580;42.680;23.324;2023-04-23T03:51:42;95267.22;;;9.28;100.00
13027;BME280;6580;42.680;23.324;2023-04-23T03:54:29;95277.91;;;9.18;100.00
13027;BME280;6580;42.680;23.324;2023-04-23T03:57:15;95281.56;;;9.17;100.00
13027;BME280;6580;42.680;23.324;2023-04-23T04:00:00;95283.19;;;9.28;100.00
13027;BME280;6580;42.680;23.324;2023-04-23T04:02:46;95290.22;;;9.19;100.00
13027;BME280;6580;42.680;23.324;2023-04-23T04:05:32;95288.66;;;9.26;100.00
13027;BME280;6580;42.680;23.324;2023-04-23T04:08:17;95289.53;;;9.44;100.00
13027;BME280;6580;42.680;23.324;2023-04-23T04:11:04;95284.72;;;9.48;100.00
13027;BME280;6580;42.680;23.324;2023-04-23T04:13:49;95290.28;;;9.37;100.00
13027;BME280;6580;42.680;23.324;2023-04-23T04:16:35;95287.63;;;9.37;100.00
13027;BME280;6580;42.680;23.324;2023-04-23T04:19:21;95294.03;;;9.61;100.00
13027;BME280;6580;42.680;23.324;2023-04-23T04:22:09;95292.81;;;9.73;100.00
13027;BME280;6580;42.680;23.324;2023-04-23T04:24:55;95295.50;;;9.46;100.00
13027;BME280;6580;42.680;23.324;2023-04-23T04:27:42;95294.78;;;9.54;100.00
13027;BME280;6580;42.680;23.324;2023-04-23T04:30:29;95297.22;;;9.65;100.00
13027;BME280;6580;42.680;23.324;2023-04-23T04:33:16;95282.06;;;9.65;100.00
13027;BME280;6580;42.680;23.324;2023-04-23T04:36:03;95302.00;;;9.79;100.00
13027;BME280;6580;42.680;23.324;2023-04-23T04:38:51;95299.97;;;9.73;100.00
13027;BME280;6580;42.680;23.324;2023-04-23T04:41:36;95301.22;;;9.86;100.00
13027;BME280;6580;42.680;23.324;2023-04-23T04:44:23;95303.22;;;9.84;100.00
13027;BME280;6580;42.680;23.324;2023-04-23T04:47:09;95306.44;;;10.05;100.00
13027;BME280;6580;42.680;23.324;2023-04-23T04:49:56;95305.06;;;10.36;100.00
13027;BME280;6580;42.680;23.324;2023-04-23T04:52:42;95301.44;;;10.45;100.00
13027;BME280;6580;42.680;23.324;2023-04-23T04:55:28;95308.88;;;10.59;100.00
13027;BME280;6580;42.680;23.324;2023-04-23T04:58:14;95307.63;;;10.71;100.00
13027;BME280;6580;42.680;23.324;2023-04-23T05:01:04;95321.53;;;10.82;100.00
13027;BME280;6580;42.680;23.324;2023-04-23T05:03:50;95315.47;;;10.72;100.00
13027;BME280;6580;42.680;23.324;2023-04-23T05:06:36;95312.31;;;10.77;100.00
13027;BME280;6580;42.680;23.324;2023-04-23T05:09:22;95304.41;;;11.18;100.00
13027;BME280;6580;42.680;23.324;2023-04-23T05:12:07;95303.84;;;11.89;97.21
13027;BME280;6580;42.680;23.324;2023-04-23T05:14:53;95294.53;;;12.73;90.71
13027;BME280;6580;42.680;23.324;2023-04-23T05:17:40;95301.25;;;13.69;83.74
13027;BME280;6580;42.680;23.324;2023-04-23T05:20:25;95295.41;;;14.49;76.92
13027;BME280;6580;42.680;23.324;2023-04-23T05:23:10;95292.00;;;14.77;73.28
13027;BME280;6580;42.680;23.324;2023-04-23T05:25:56;95297.03;;;15.09;70.32
13027;BME280;6580;42.680;23.324;2023-04-23T05:28:42;95292.84;;;14.55;71.56
13027;BME280;6580;42.680;23.324;2023-04-23T05:31:27;95303.34;;;14.12;73.88
13027;BME280;6580;42.680;23.324;2023-04-23T05:34:14;95292.44;;;14.81;72.34
13027;BME280;6580;42.680;23.324;2023-04-23T05:37:00;95291.59;;;15.17;68.98
13027;BME280;6580;42.680;23.324;2023-04-23T05:39:49;95296.06;;;15.68;65.84
13027;BME280;6580;42.680;23.324;2023-04-23T05:42:36;95300.00;;;15.86;64.15
13027;BME280;6580;42.680;23.324;2023-04-23T05:45:22;95292.56;;;16.38;63.23
13027;BME280;6580;42.680;23.324;2023-04-23T05:48:10;95296.03;;;16.53;60.79
13027;BME280;6580;42.680;23.324;2023-04-23T05:50:56;95298.97;;;16.37;61.55
13027;BME280;6580;42.680;23.324;2023-04-23T05:53:43;95294.00;;;16.55;61.32
13027;BME280;6580;42.680;23.324;2023-04-23T05:56:29;95295.94;;;16.88;58.94
13027;BME280;6580;42.680;23.324;2023-04-23T05:59:14;95297.25;;;16.99;58.17
13027;BME280;6580;42.680;23.324;2023-04-23T06:02:00;95301.28;;;17.30;56.83
13027;BME280;6580;42.680;23.324;2023-04-23T06:04:45;95305.41;;;17.66;55.28
13027;BME280;6580;42.680;23.324;2023-04-23T06:07:36;95290.94;;;17.33;55.77
13027;BME280;6580;42.680;23.324;2023-04-23T06:10:22;95300.69;;;17.14;56.78
13027;BME280;6580;42.680;23.324;2023-04-23T06:13:07;95298.06;;;18.28;53.62
13027;BME280;6580;42.680;23.324;2023-04-23T06:15:53;95283.03;;;18.92;50.98
13027;BME280;6580;42.680;23.324;2023-04-23T06:18:39;95300.13;;;18.26;52.34
13027;BME280;6580;42.680;23.324;2023-04-23T06:21:24;95278.25;;;18.68;51.62
13027;BME280;6580;42.680;23.324;2023-04-23T06:24:12;95282.88;;;19.26;49.61
13027;BME280;6580;42.680;23.324;2023-04-23T06:26:58;95278.28;;;19.26;49.04
13027;BME280;6580;42.680;23.324;2023-04-23T06:29:45;95277.84;;;19.03;49.39
13027;BME280;6580;42.680;23.324;2023-04-23T06:32:30;95288.72;;;18.24;51.15
13027;BME280;6580;42.680;23.324;2023-04-23T06:35:18;95281.56;;;18.96;50.08
13027;BME280;6580;42.680;23.324;2023-04-23T06:38:03;95291.16;;;19.24;49.13
13027;BME280;6580;42.680;23.324;2023-04-23T06:40:51;95280.97;;;20.22;46.97
13027;BME280;6580;42.680;23.324;2023-04-23T06:43:36;95281.00;;;20.90;44.83
13027;BME280;6580;42.680;23.324;2023-04-23T06:46:22;95273.88;;;19.57;47.14
13027;BME280;6580;42.680;23.324;2023-04-23T06:49:09;95287.19;;;19.20;49.13
13027;BME280;6580;42.680;23.324;2023-04-23T06:52:02;95286.16;;;20.17;47.28
13027;BME280;6580;42.680;23.324;2023-04-23T06:54:47;95272.34;;;21.30;44.82
13027;BME280;6580;42.680;23.324;2023-04-23T06:57:34;95266.00;;;20.87;44.68
13027;BME280;6580;42.680;23.324;2023-04-23T07:00:21;95274.19;;;20.00;46.74
13027;BME280;6580;42.680;23.324;2023-04-23T07:03:06;95276.22;;;21.16;44.86
13027;BME280;6580;42.680;23.324;2023-04-23T07:05:53;95270.66;;;20.80;44.80
13027;BME280;6580;42.680;23.324;2023-04-23T07:08:39;95278.63;;;21.24;44.34
13027;BME280;6580;42.680;23.324;2023-04-23T07:11:24;95267.00;;;21.66;43.07
13027;BME280;6580;42.680;23.324;2023-04-23T07:14:11;95272.38;;;21.72;42.79
13027;BME280;6580;42.680;23.324;2023-04-23T07:16:58;95272.88;;;22.17;42.82
13027;BME280;6580;42.680;23.324;2023-04-23T07:19:43;95267.78;;;22.45;41.33
13027;BME280;6580;42.680;23.324;2023-04-23T07:22:28;95277.50;;;21.38;43.73
13027;BME280;6580;42.680;23.324;2023-04-23T07:25:14;95263.53;;;21.59;42.66
13027;BME280;6580;42.680;23.324;2023-04-23T07:28:00;95250.88;;;22.43;41.21
13027;BME280;6580;42.680;23.324;2023-04-23T07:30:49;95253.69;;;22.65;40.39
13027;BME280;6580;42.680;23.324;2023-04-23T07:33:34;95266.91;;;21.30;43.09
13027;BME280;6580;42.680;23.324;2023-04-23T07:36:20;95263.53;;;21.59;43.21
13027;BME280;6580;42.680;23.324;2023-04-23T07:39:05;95263.94;;;22.34;41.94
13027;BME280;6580;42.680;23.324;2023-04-23T07:41:50;95251.50;;;22.74;40.60
13027;BME280;6580;42.680;23.324;2023-04-23T07:44:37;95255.66;;;23.74;38.78
13027;BME280;6580;42.680;23.324;2023-04-23T07:47:24;95248.66;;;23.33;38.90
13027;BME280;6580;42.680;23.324;2023-04-23T07:50:10;95260.41;;;23.79;38.21
13027;BME280;6580;42.680;23.324;2023-04-23T07:52:56;95249.16;;;24.77;36.18
13027;BME280;6580;42.680;23.324;2023-04-23T07:55:42;95252.41;;;24.74;35.84
13027;BME280;6580;42.680;23.324;2023-04-23T07:58:27;95248.94;;;23.65;37.39
13027;BME280;6580;42.680;23.324;2023-04-23T08:01:12;95245.22;;;24.57;36.28
13027;BME280;6580;42.680;23.324;2023-04-23T08:04:01;95247.88;;;23.44;38.02
13027;BME280;6580;42.680;23.324;2023-04-23T08:06:47;95252.00;;;24.82;36.41
13027;BME280;6580;42.680;23.324;2023-04-23T08:09:34;95235.25;;;25.06;35.30
13027;BME280;6580;42.680;23.324;2023-04-23T08:12:20;95244.25;;;24.23;36.14
13027;BME280;6580;42.680;23.324;2023-04-23T08:15:10;95246.69;;;23.63;37.23
13027;BME280;6580;42.680;23.324;2023-04-23T08:17:55;95257.81;;;21.67;40.71
13027;BME280;6580;42.680;23.324;2023-04-23T08:20:42;95252.16;;;22.22;41.52
13027;BME280;6580;42.680;23.324;2023-04-23T08:23:29;95249.91;;;22.66;40.37
13027;BME280;6580;42.680;23.324;2023-04-23T08:26:17;95246.81;;;24.30;37.49
13027;BME280;6580;42.680;23.324;2023-04-23T08:29:04;95242.34;;;24.91;35.62
13027;BME280;6580;42.680;23.324;2023-04-23T08:31:49;95234.16;;;25.35;34.43
13027;BME280;6580;42.680;23.324;2023-04-23T08:34:35;95228.88;;;25.62;33.56
13027;BME280;6580;42.680;23.324;2023-04-23T08:37:24;95228.47;;;24.48;35.65
13027;BME280;6580;42.680;23.324;2023-04-23T08:40:10;95234.19;;;22.68;38.80
13027;BME280;6580;42.680;23.324;2023-04-23T08:42:57;95223.84;;;23.98;35.86
13027;BME280;6580;42.680;23.324;2023-04-23T08:45:45;95230.13;;;24.38;35.13
13027;BME280;6580;42.680;23.324;2023-04-23T08:48:33;95222.91;;;25.32;33.39
13027;BME280;6580;42.680;23.324;2023-04-23T08:51:20;95219.13;;;25.16;33.96
13027;BME280;6580;42.680;23.324;2023-04-23T08:54:22;95215.84;;;25.03;34.47
13027;BME280;6580;42.680;23.324;2023-04-23T08:57:09;95219.47;;;25.90;33.13
13027;BME280;6580;42.680;23.324;2023-04-23T09:00:04;95193.38;;;24.52;34.79
13027;BME280;6580;42.680;23.324;2023-04-23T09:02:51;95206.25;;;23.09;37.46
13027;BME280;6580;42.680;23.324;2023-04-23T09:05:37;95220.44;;;21.51;39.58
13027;BME280;6580;42.680;23.324;2023-04-23T09:08:24;95217.31;;;21.30;40.06
13027;BME280;6580;42.680;23.324;2023-04-23T09:11:11;95211.97;;;21.65;40.25
13027;BME280;6580;42.680;23.324;2023-04-23T09:14:00;95202.47;;;22.69;38.97
13027;BME280;6580;42.680;23.324;2023-04-23T09:16:49;95196.25;;;24.73;35.09
13027;BME280;6580;42.680;23.324;2023-04-23T09:19:36;95203.50;;;25.99;32.71
13027;BME280;6580;42.680;23.324;2023-04-23T09:22:44;95203.06;;;25.53;33.38
13027;BME280;6580;42.680;23.324;2023-04-23T09:25:30;95193.91;;;25.96;32.49
13027;BME280;6580;42.680;23.324;2023-04-23T09:28:18;95195.75;;;26.12;32.39
13027;BME280;6580;42.680;23.324;2023-04-23T09:31:04;95194.78;;;25.80;31.68
13027;BME280;6580;42.680;23.324;2023-04-23T09:33:50;95191.63;;;25.72;32.04
13027;BME280;6580;42.680;23.324;2023-04-23T09:36:40;95186.84;;;24.97;33.57
13027;BME280;6580;42.680;23.324;2023-04-23T09:39:27;95179.13;;;26.14;31.51
13027;BME280;6580;42.680;23.324;2023-04-23T09:42:14;95177.94;;;24.85;33.06
13027;BME280;6580;42.680;23.324;2023-04-23T09:45:05;95179.22;;;22.73;36.04
13027;BME280;6580;42.680;23.324;2023-04-23T09:47:53;95174.22;;;22.29;37.04
13027;BME280;6580;42.680;23.324;2023-04-23T09:50:41;95173.75;;;21.49;38.78
13027;BME280;6580;42.680;23.324;2023-04-23T09:53:26;95168.09;;;22.63;37.06
13027;BME280;6580;42.680;23.324;2023-04-23T09:56:12;95167.06;;;25.18;33.03
13027;BME280;6580;42.680;23.324;2023-04-23T09:58:57;95168.25;;;25.60;31.77
13027;BME280;6580;42.680;23.324;2023-04-23T10:01:45;95164.69;;;25.59;30.95
13027;BME280;6580;42.680;23.324;2023-04-23T10:04:31;95152.22;;;24.37;32.36
13027;BME280;6580;42.680;23.324;2023-04-23T10:07:17;95154.13;;;24.08;33.56
13027;BME280;6580;42.680;23.324;2023-04-23T10:10:05;95160.03;;;23.20;34.32
13027;BME280;6580;42.680;23.324;2023-04-23T10:12:52;95153.09;;;22.60;35.25
13027;BME280;6580;42.680;23.324;2023-04-23T10:15:40;95153.38;;;21.47;37.99
13027;BME280;6580;42.680;23.324;2023-04-23T10:18:31;95132.22;;;23.64;34.02
13027;BME280;6580;42.680;23.324;2023-04-23T10:21:18;95142.16;;;23.59;33.83
13027;BME280;6580;42.680;23.324;2023-04-23T10:24:05;95137.56;;;24.10;33.46
13027;BME280;6580;42.680;23.324;2023-04-23T10:26:51;95121.44;;;24.64;31.75
13027;BME280;6580;42.680;23.324;2023-04-23T10:29:40;95116.50;;;26.29;30.01
13027;BME280;6580;42.680;23.324;2023-04-23T10:32:26;95113.31;;;26.63;29.47
13027;BME280;6580;42.680;23.324;2023-04-23T10:35:14;95094.50;;;27.76;27.09
13027;BME280;6580;42.680;23.324;2023-04-23T10:37:59;95093.28;;;27.57;27.14
13027;BME280;6580;42.680;23.324;2023-04-23T10:40:47;95105.97;;;27.68;27.41
13027;BME280;6580;42.680;23.324;2023-04-23T10:43:36;95086.97;;;28.07;27.22
13027;BME280;6580;42.680;23.324;2023-04-23T10:46:28;95088.53;;;27.88;26.75
13027;BME280;6580;42.680;23.324;2023-04-23T10:49:14;95084.97;;;26.69;27.53
13027;BME280;6580;42.680;23.324;2023-04-23T10:52:03;95094.00;;;23.82;30.75
13027;BME280;6580;42.680;23.324;2023-04-23T10:54:56;95086.72;;;23.60;30.44
13027;BME280;6580;42.680;23.324;2023-04-23T10:57:58;95083.22;;;23.36;30.87
13027;BME280;6580;42.680;23.324;2023-04-23T11:00:48;95085.34;;;23.85;30.86
13027;BME280;6580;42.680;23.324;2023-04-23T11:03:37;95078.97;;;22.83;31.48
13027;BME280;6580;42.680;23.324;2023-04-23T11:06:59;95084.59;;;22.06;32.96
13027;BME280;6580;42.680;23.324;2023-04-23T11:09:50;95062.28;;;23.76;30.42
13027;BME280;6580;42.680;23.324;2023-04-23T11:12:42;95061.78;;;25.55;28.01
13027;BME280;6580;42.680;23.324;2023-04-23T11:15:33;95053.66;;;26.50;26.73
13027;BME280;6580;42.680;23.324;2023-04-23T11:18:19;95045.06;;;27.04;25.41
13027;BME280;6580;42.680;23.324;2023-04-23T11:21:09;95035.03;;;27.15;25.13
13027;BME280;6580;42.680;23.324;2023-04-23T11:23:56;95022.84;;;27.84;24.65
13027;BME280;6580;42.680;23.324;2023-04-23T11:26:50;95043.69;;;27.43;25.31
13027;BME280;6580;42.680;23.324;2023-04-23T11:29:37;95037.81;;;27.20;25.06
13027;BME280;6580;42.680;23.324;2023-04-23T11:32:23;95038.63;;;26.53;25.30
13027;BME280;6580;42.680;23.324;2023-04-23T11:35:12;95026.88;;;26.52;24.88
13027;BME280;6580;42.680;23.324;2023-04-23T11:37:58;95030.94;;;25.75;25.51
13027;BME280;6580;42.680;23.324;2023-04-23T11:40:50;95032.38;;;26.04;25.30
13027;BME280;6580;42.680;23.324;2023-04-23T11:43:37;95021.53;;;26.67;24.14
13027;BME280;6580;42.680;23.324;2023-04-23T11:46:23;95027.03;;;26.14;25.06
13027;BME280;6580;42.680;23.324;2023-04-23T11:49:09;95021.88;;;25.49;26.13
13027;BME280;6580;42.680;23.324;2023-04-23T11:51:58;95008.69;;;26.36;24.80
13027;BME280;6580;42.680;23.324;2023-04-23T11:54:45;95010.34;;;26.37;24.62
13027;BME280;6580;42.680;23.324;2023-04-23T11:57:34;94999.25;;;27.73;23.18
13027;BME280;6580;42.680;23.324;2023-04-23T12:00:24;95006.84;;;28.62;22.74
13027;BME280;6580;42.680;23.324;2023-04-23T12:03:11;94997.78;;;28.31;21.98
13027;BME280;6580;42.680;23.324;2023-04-23T12:05:59;94996.00;;;27.90;21.78
13027;BME280;6580;42.680;23.324;2023-04-23T12:08:46;94990.94;;;28.64;21.69
13027;BME280;6580;42.680;23.324;2023-04-23T12:11:33;95003.75;;;28.23;21.77
13027;BME280;6580;42.680;23.324;2023-04-23T12:14:25;94993.72;;;27.11;23.15
13027;BME280;6580;42.680;23.324;2023-04-23T12:17:13;95002.72;;;27.63;22.07
13027;BME280;6580;42.680;23.324;2023-04-23T12:20:03;94994.75;;;27.52;21.79
13027;BME280;6580;42.680;23.324;2023-04-23T12:22:51;94982.28;;;27.86;21.29
13027;BME280;6580;42.680;23.324;2023-04-23T12:25:40;94980.41;;;26.88;22.86
13027;BME280;6580;42.680;23.324;2023-04-23T12:28:28;94983.56;;;27.63;22.32
13027;BME280;6580;42.680;23.324;2023-04-23T12:31:28;94977.44;;;26.90;22.87
13027;BME280;6580;42.680;23.324;2023-04-23T12:34:18;94973.06;;;26.26;23.29
13027;BME280;6580;42.680;23.324;2023-04-23T12:37:05;94985.81;;;24.66;24.39
13027;BME280;6580;42.680;23.324;2023-04-23T12:39:52;94982.69;;;24.74;24.89
13027;BME280;6580;42.680;23.324;2023-04-23T12:42:40;94974.81;;;24.12;24.79
13027;BME280;6580;42.680;23.324;2023-04-23T12:45:25;94982.66;;;24.08;25.21
13027;BME280;6580;42.680;23.324;2023-04-23T12:48:22;94985.59;;;23.90;26.00
13027;BME280;6580;42.680;23.324;2023-04-23T12:51:11;94987.44;;;23.46;26.05
13027;BME280;6580;42.680;23.324;2023-04-23T12:54:02;94987.81;;;23.10;26.87
13027;BME280;6580;42.680;23.324;2023-04-23T12:57:04;94979.50;;;23.05;27.05
13027;BME280;6580;42.680;23.324;2023-04-23T12:59:51;94984.63;;;22.67;27.41
13027;BME280;6580;42.680;23.324;2023-04-23T13:02:37;94986.75;;;22.65;27.17
13027;BME280;6580;42.680;23.324;2023-04-23T13:05:26;94983.31;;;22.69;26.78
13027;BME280;6580;42.680;23.324;2023-04-23T13:08:16;94980.59;;;22.92;26.79
13027;BME280;6580;42.680;23.324;2023-04-23T13:11:02;94977.09;;;22.46;27.59
13027;BME280;6580;42.680;23.324;2023-04-23T13:13:47;94984.09;;;22.01;27.66
13027;BME280;6580;42.680;23.324;2023-04-23T13:16:33;94980.03;;;22.33;27.21
13027;BME280;6580;42.680;23.324;2023-04-23T13:19:19;94969.38;;;22.20;27.41
13027;BME280;6580;42.680;23.324;2023-04-23T13:22:06;94975.88;;;22.19;27.35
13027;BME280;6580;42.680;23.324;2023-04-23T13:24:54;94971.94;;;22.04;27.31
13027;BME280;6580;42.680;23.324;2023-04-23T13:27:41;94969.59;;;22.07;27.81
13027;BME280;6580;42.680;23.324;2023-04-23T13:30:27;94973.53;;;22.57;27.15
13027;BME280;6580;42.680;23.324;2023-04-23T13:33:20;94965.97;;;22.48;27.16
13027;BME280;6580;42.680;23.324;2023-04-23T13:36:08;94960.34;;;22.49;26.98
13027;BME280;6580;42.680;23.324;2023-04-23T13:38:54;94961.84;;;22.45;26.89
13027;BME280;6580;42.680;23.324;2023-04-23T13:41:43;94944.84;;;22.27;27.10
13027;BME280;6580;42.680;23.324;2023-04-23T13:44:28;94949.13;;;22.46;27.01
13027;BME280;6580;42.680;23.324;2023-04-23T13:47:15;94947.47;;;22.45;27.29
13027;BME280;6580;42.680;23.324;2023-04-23T13:50:01;94942.47;;;22.19;27.18
13027;BME280;6580;42.680;23.324;2023-04-23T13:52:50;94950.56;;;21.84;27.13
13027;BME280;6580;42.680;23.324;2023-04-23T13:55:35;94951.38;;;21.44;27.49
13027;BME280;6580;42.680;23.324;2023-04-23T13:58:23;94950.41;;;21.39;27.89
13027;BME280;6580;42.680;23.324;2023-04-23T14:01:09;94952.97;;;21.34;27.99
13027;BME280;6580;42.680;23.324;2023-04-23T14:03:57;94954.94;;;21.74;27.43
13027;BME280;6580;42.680;23.324;2023-04-23T14:06:43;94955.53;;;21.47;27.72
13027;BME280;6580;42.680;23.324;2023-04-23T14:09:28;94948.75;;;21.38;28.51
13027;BME280;6580;42.680;23.324;2023-04-23T14:12:14;94955.09;;;21.32;28.98
13027;BME280;6580;42.680;23.324;2023-04-23T14:15:04;94954.47;;;21.18;29.18
13027;BME280;6580;42.680;23.324;2023-04-23T14:17:51;94959.81;;;21.07;29.47
13027;BME280;6580;42.680;23.324;2023-04-23T14:20:37;94960.66;;;21.37;29.70
13027;BME280;6580;42.680;23.324;2023-04-23T14:23:42;94952.44;;;20.78;30.22
13027;BME280;6580;42.680;23.324;2023-04-23T14:26:33;94950.03;;;20.34;31.32
13027;BME280;6580;42.680;23.324;2023-04-23T14:29:28;94945.84;;;20.56;31.14
13027;BME280;6580;42.680;23.324;2023-04-23T14:32:17;94942.03;;;20.81;30.39
13027;BME280;6580;42.680;23.324;2023-04-23T14:35:04;94945.06;;;20.67;30.71
13027;BME280;6580;42.680;23.324;2023-04-23T14:37:50;94944.31;;;20.60;30.54
13027;BME280;6580;42.680;23.324;2023-04-23T14:40:35;94940.56;;;20.61;30.52
13027;BME280;6580;42.680;23.324;2023-04-23T14:43:23;94946.28;;;20.71;30.43